Time;durP1;ratioP1;P1;durP2;ratioP2;P2;SDS_P1;SDS_P2;PMS_P1;PMS_P2;Temp;Humidity;BMP_temperature;BMP_pressure;BME280_temperature;BME280_humidity;BME280_pressure;Samples;Min_cycle;Max_cycle;Signal;HPM_P1;HPM_P2
2022/08/03 00:01:25;;;;;;;2.25;2.05;;;18.10;99.90;;;;;;4963409;28;20245;-75
2022/08/03 00:03:51;;;;;;;2.37;2.00;;;18.10;99.90;;;;;;4963142;28;20175;-75
2022/08/03 00:06:17;;;;;;;2.40;2.20;;;18.00;99.90;;;;;;4962784;28;20206;-76
2022/08/03 00:08:42;;;;;;;2.00;1.90;;;18.00;99.90;;;;;;4979321;28;20211;-75
2022/08/03 00:11:08;;;;;;;3.17;2.08;;;18.20;99.90;;;;;;4979018;28;20186;-75
2022/08/03 00:13:34;;;;;;;2.10;1.90;;;18.30;99.90;;;;;;4963382;28;20187;-74
2022/08/03 00:15:59;;;;;;;3.00;2.40;;;18.20;99.90;;;;;;4962995;28;20282;-74
2022/08/03 00:18:25;;;;;;;2.25;2.10;;;18.20;99.90;;;;;;4978885;28;20183;-74
2022/08/03 00:20:50;;;;;;;2.30;2.10;;;18.10;99.90;;;;;;4978897;28;20178;-74
2022/08/03 00:23:16;;;;;;;2.00;1.80;;;18.10;99.90;;;;;;4995156;28;20558;-74
2022/08/03 00:25:42;;;;;;;2.27;2.07;;;17.90;99.90;;;;;;4979074;28;20279;-74
2022/08/03 00:28:08;;;;;;;3.57;2.00;;;17.80;99.90;;;;;;4994905;28;20202;-74
2022/08/03 00:30:33;;;;;;;2.30;2.10;;;17.70;99.90;;;;;;4978495;28;20183;-74
2022/08/03 00:33:00;;;;;;;2.60;2.40;;;17.60;99.90;;;;;;4995094;28;20172;-74
2022/08/03 00:35:26;;;;;;;2.00;1.90;;;17.70;99.90;;;;;;4962773;28;20195;-74
2022/08/03 00:37:51;;;;;;;2.30;2.10;;;17.90;99.90;;;;;;4978842;28;20261;-74
2022/08/03 00:40:18;;;;;;;2.73;2.00;;;18.00;99.90;;;;;;4978897;28;20234;-74
2022/08/03 00:42:57;;;;;;;2.40;2.20;;;17.80;99.90;;;;;;4995117;28;20225;-74
2022/08/03 00:45:28;;;;;;;2.70;2.20;;;17.60;99.90;;;;;;5012252;28;20210;-74
2022/08/03 00:47:54;;;;;;;2.60;2.30;;;17.50;99.90;;;;;;4994457;28;20209;-74
2022/08/03 00:50:21;;;;;;;3.97;2.00;;;17.50;99.90;;;;;;4994785;28;20257;-74
2022/08/03 00:52:48;;;;;;;2.40;1.83;;;17.50;99.90;;;;;;4994768;28;20171;-74
2022/08/03 00:55:14;;;;;;;2.40;2.20;;;17.50;99.90;;;;;;4978675;28;20199;-74
2022/08/03 00:57:41;;;;;;;2.40;2.20;;;17.50;99.90;;;;;;4994577;28;20557;-74
2022/08/03 01:00:08;;;;;;;2.47;2.10;;;17.50;99.90;;;;;;4994793;28;20241;-74
2022/08/03 01:02:34;;;;;;;2.67;2.03;;;17.40;99.90;;;;;;4994841;28;20266;-74
2022/08/03 01:05:00;;;;;;;2.33;2.13;;;17.40;99.90;;;;;;4978718;28;20183;-74
2022/08/03 01:07:39;;;;;;;2.37;2.17;;;17.40;99.90;;;;;;4962354;28;20191;-74
2022/08/03 01:10:10;;;;;;;2.17;2.07;;;17.50;99.90;;;;;;4994670;28;20181;-74
2022/08/03 01:12:47;;;;;;;2.47;2.27;;;17.40;99.90;;;;;;5010986;28;20531;-74
2022/08/03 01:15:13;;;;;;;3.87;2.40;;;17.30;99.90;;;;;;4994578;28;20220;-74
2022/08/03 01:18:09;;;;;;;2.50;2.30;;;17.50;99.90;;;;;;5011972;28;20296;-74
2022/08/03 01:20:39;;;;;;;2.40;2.20;;;17.60;99.90;;;;;;4994572;28;20175;-74
2022/08/03 01:23:28;;;;;;;2.40;2.20;;;17.60;99.90;;;;;;4978595;28;20278;-74
2022/08/03 01:26:06;;;;;;;2.47;2.27;;;17.50;99.90;;;;;;5012401;28;20245;-74
2022/08/03 01:29:01;;;;;;;2.57;2.10;;;17.30;99.90;;;;;;5011641;28;20202;-74
2022/08/03 01:31:41;;;;;;;2.30;2.10;;;17.10;99.90;;;;;;4994434;28;20568;-74
2022/08/03 01:34:11;;;;;;;3.23;2.30;;;17.00;99.90;;;;;;4978413;28;20676;-74
2022/08/03 01:36:42;;;;;;;2.40;2.20;;;17.20;99.90;;;;;;4978140;28;20210;-74
2022/08/03 01:39:08;;;;;;;2.60;2.40;;;17.20;99.90;;;;;;4978756;28;20575;-74
2022/08/03 01:41:59;;;;;;;3.90;2.50;;;17.00;99.90;;;;;;4978308;28;20179;-74
2022/08/03 01:44:32;;;;;;;2.33;2.13;;;17.00;99.90;;;;;;5010783;28;20175;-74
2022/08/03 01:47:00;;;;;;;3.37;2.57;;;17.00;99.90;;;;;;4977909;28;20581;-74
2022/08/03 01:49:28;;;;;;;2.37;2.17;;;17.10;99.90;;;;;;4978067;28;20187;-74
2022/08/03 01:51:55;;;;;;;2.50;2.23;;;17.00;99.90;;;;;;4994266;28;20553;-74
2022/08/03 01:54:23;;;;;;;2.77;2.50;;;17.00;99.90;;;;;;4978061;28;20194;-74
2022/08/03 01:56:51;;;;;;;2.50;2.30;;;16.90;99.90;;;;;;4993984;28;20309;-74
2022/08/03 01:59:19;;;;;;;2.50;2.30;;;16.80;99.90;;;;;;4981531;28;20313;-74
2022/08/03 02:01:46;;;;;;;2.40;2.20;;;16.80;99.90;;;;;;4965514;28;20183;-74
2022/08/03 02:04:13;;;;;;;2.63;2.43;;;17.00;99.90;;;;;;4965805;28;20190;-74
2022/08/03 02:06:39;;;;;;;2.33;2.13;;;16.90;99.90;;;;;;4981400;28;20574;-74
2022/08/03 02:09:06;;;;;;;3.53;2.40;;;16.80;99.90;;;;;;4997530;28;20187;-74
2022/08/03 02:11:34;;;;;;;2.87;2.20;;;16.80;99.90;;;;;;4997615;28;20179;-74
2022/08/03 02:14:02;;;;;;;2.37;2.17;;;16.90;99.90;;;;;;5013654;28;20618;-74
2022/08/03 02:16:31;;;;;;;2.70;2.50;;;16.80;99.90;;;;;;4997188;28;20572;-74
2022/08/03 02:18:58;;;;;;;2.37;2.17;;;16.90;99.90;;;;;;5013801;28;20689;-74
2022/08/03 02:21:27;;;;;;;2.90;2.40;;;16.90;99.90;;;;;;4997389;28;20178;-74
2022/08/03 02:23:53;;;;;;;2.60;2.40;;;16.80;99.90;;;;;;4965170;28;20194;-74
2022/08/03 02:26:21;;;;;;;2.50;2.30;;;17.00;99.90;;;;;;4997254;28;20195;-74
2022/08/03 02:28:50;;;;;;;2.47;2.10;;;16.90;99.90;;;;;;4980897;28;20179;-74
2022/08/03 02:31:22;;;;;;;2.30;2.10;;;16.90;99.90;;;;;;4997291;28;20551;-74
2022/08/03 02:33:51;;;;;;;2.73;2.50;;;16.80;99.90;;;;;;4981475;28;20187;-74
2022/08/03 02:36:24;;;;;;;3.23;2.60;;;16.70;99.90;;;;;;4997142;28;20807;-74
2022/08/03 02:38:53;;;;;;;2.40;2.20;;;16.70;99.90;;;;;;4997302;28;20301;-74
2022/08/03 02:41:24;;;;;;;2.30;2.10;;;16.60;99.90;;;;;;4980745;28;20179;-74
2022/08/03 02:43:54;;;;;;;3.13;2.60;;;16.70;99.90;;;;;;4996968;28;20183;-74
2022/08/03 02:46:24;;;;;;;2.60;2.40;;;16.80;99.90;;;;;;4996799;28;20278;-74
2022/08/03 02:48:52;;;;;;;2.80;2.60;;;16.80;99.90;;;;;;5013202;28;20189;-74
2022/08/03 02:51:20;;;;;;;3.20;2.20;;;16.60;99.90;;;;;;4996938;28;20179;-74
2022/08/03 02:53:47;;;;;;;2.50;2.30;;;16.40;99.90;;;;;;4980931;28;20275;-74
2022/08/03 02:56:15;;;;;;;2.83;2.63;;;16.40;99.90;;;;;;4996577;28;20210;-74
2022/08/03 02:58:44;;;;;;;2.70;2.50;;;16.50;99.90;;;;;;4964767;28;20586;-74
2022/08/03 03:01:11;;;;;;;2.50;2.30;;;16.60;99.90;;;;;;5014113;28;20175;-74
2022/08/03 03:03:39;;;;;;;3.03;2.50;;;16.80;99.90;;;;;;4964763;28;20616;-74
2022/08/03 03:06:05;;;;;;;3.07;2.40;;;16.70;99.90;;;;;;4964443;28;20199;-74
2022/08/03 03:08:31;;;;;;;2.63;2.43;;;16.80;99.90;;;;;;4996475;28;20241;-74
2022/08/03 03:10:59;;;;;;;4.03;2.60;;;16.50;99.90;;;;;;4980204;28;20642;-74
2022/08/03 03:13:29;;;;;;;3.13;2.40;;;16.40;99.90;;;;;;4964256;28;20189;-74
2022/08/03 03:15:59;;;;;;;2.50;2.30;;;16.30;99.90;;;;;;4964288;28;20257;-74
2022/08/03 03:18:27;;;;;;;2.70;2.50;;;16.50;99.90;;;;;;4979992;28;20211;-74
2022/08/03 03:20:54;;;;;;;2.80;2.60;;;16.50;99.90;;;;;;4996210;28;20179;-74
2022/08/03 03:23:22;;;;;;;2.60;2.40;;;16.60;99.90;;;;;;4980048;28;20642;-74
2022/08/03 03:25:48;;;;;;;2.67;2.47;;;16.60;99.90;;;;;;4964072;28;20195;-74
2022/08/03 03:28:14;;;;;;;3.33;2.67;;;16.40;99.90;;;;;;4979666;28;20182;-74
2022/08/03 03:30:40;;;;;;;3.27;2.80;;;16.30;99.90;;;;;;4996288;28;20237;-74
2022/08/03 03:33:06;;;;;;;2.97;2.70;;;16.10;99.90;;;;;;4996234;28;20183;-74
2022/08/03 03:35:32;;;;;;;2.97;2.77;;;15.90;99.90;;;;;;4979856;28;20294;-74
2022/08/03 03:37:57;;;;;;;2.80;2.60;;;16.00;99.90;;;;;;4995864;28;20210;-74
2022/08/03 03:40:23;;;;;;;2.50;2.30;;;16.20;99.90;;;;;;4995920;28;20185;-73
2022/08/03 03:42:50;;;;;;;2.63;2.43;;;16.20;99.90;;;;;;4979717;28;20322;-74
2022/08/03 03:45:15;;;;;;;2.80;2.53;;;16.30;99.90;;;;;;4979657;28;20198;-74
2022/08/03 03:47:41;;;;;;;2.53;2.33;;;16.40;99.90;;;;;;4963298;28;20240;-74
2022/08/03 03:50:07;;;;;;;3.17;2.73;;;16.30;99.90;;;;;;4979597;28;20201;-74
2022/08/03 03:52:33;;;;;;;2.77;2.57;;;16.20;99.90;;;;;;4979672;28;20190;-74
2022/08/03 03:54:59;;;;;;;2.90;2.70;;;16.20;99.90;;;;;;4995783;28;20175;-74
2022/08/03 03:57:25;;;;;;;2.90;2.60;;;16.10;99.90;;;;;;4979108;28;20197;-74
2022/08/03 03:59:50;;;;;;;3.70;2.97;;;16.00;99.90;;;;;;4995579;28;20218;-74
2022/08/03 04:02:16;;;;;;;2.80;2.60;;;16.00;99.90;;;;;;4995775;28;20183;-74
2022/08/03 04:13:11;;;;;;;3.07;2.80;;;15.90;99.90;;;;;;5013165;28;20178;-74
2022/08/03 04:15:38;;;;;;;3.47;2.50;;;15.90;99.90;;;;;;4995160;28;20213;-74
2022/08/03 04:18:06;;;;;;;3.00;2.77;;;15.90;99.90;;;;;;4978846;28;20217;-74
2022/08/03 04:20:36;;;;;;;2.87;2.67;;;16.10;99.90;;;;;;4978757;28;20186;-73
2022/08/03 04:23:02;;;;;;;2.83;2.43;;;15.90;99.90;;;;;;4979214;28;20179;-74
2022/08/03 04:25:31;;;;;;;3.90;2.80;;;15.80;99.90;;;;;;4995125;28;20199;-74
2022/08/03 04:28:00;;;;;;;2.83;2.63;;;15.70;99.90;;;;;;4978631;28;20596;-74
2022/08/03 04:30:28;;;;;;;3.03;2.73;;;15.60;99.90;;;;;;4994969;28;20635;-74
2022/08/03 04:32:56;;;;;;;2.70;2.50;;;15.40;99.90;;;;;;4962846;28;20191;-74
2022/08/03 04:35:23;;;;;;;3.20;2.60;;;15.50;99.90;;;;;;4978793;28;20211;-74
2022/08/03 04:37:51;;;;;;;3.10;2.80;;;15.50;99.90;;;;;;4978753;28;20209;-74
2022/08/03 04:40:21;;;;;;;2.80;2.60;;;15.60;99.90;;;;;;4994860;28;20197;-74
2022/08/03 04:42:48;;;;;;;3.20;2.90;;;15.80;99.90;;;;;;4994770;28;20217;-74
2022/08/03 04:45:16;;;;;;;3.20;2.90;;;15.90;99.90;;;;;;4978906;28;20310;-74
2022/08/03 04:47:42;;;;;;;3.00;2.80;;;15.90;99.90;;;;;;4978601;28;20187;-74
2022/08/03 04:50:08;;;;;;;3.23;2.93;;;15.90;99.90;;;;;;4978807;28;20186;-74
2022/08/03 04:52:34;;;;;;;2.97;2.77;;;15.90;99.90;;;;;;4978910;28;20183;-74
2022/08/03 04:55:00;;;;;;;2.90;2.70;;;16.00;99.90;;;;;;4994809;28;20175;-74
2022/08/03 04:57:26;;;;;;;3.03;2.83;;;15.90;99.90;;;;;;4978416;28;20202;-74
2022/08/03 04:59:55;;;;;;;2.90;2.70;;;15.90;99.90;;;;;;4978635;28;20190;-74
2022/08/03 05:02:22;;;;;;;3.07;2.60;;;15.90;99.90;;;;;;4994643;28;20202;-73
2022/08/03 05:04:48;;;;;;;3.30;3.00;;;15.90;99.90;;;;;;4994689;28;20217;-74
2022/08/03 05:07:15;;;;;;;3.30;3.00;;;15.90;99.90;;;;;;5012004;28;20199;-74
2022/08/03 05:09:41;;;;;;;2.80;2.50;;;15.90;99.90;;;;;;5012330;28;20197;-74
2022/08/03 05:12:07;;;;;;;2.80;2.60;;;15.90;99.90;;;;;;4994557;28;20182;-74
2022/08/03 05:14:36;;;;;;;3.50;2.90;;;16.00;99.90;;;;;;4994518;28;20195;-74
2022/08/03 05:17:03;;;;;;;4.00;3.20;;;16.00;99.90;;;;;;4978427;28;20207;-74
2022/08/03 05:19:29;;;;;;;3.07;2.87;;;16.10;99.90;;;;;;4994655;28;20577;-74
2022/08/03 05:21:54;;;;;;;2.90;2.70;;;16.20;99.90;;;;;;4994838;28;20182;-74
2022/08/03 05:24:20;;;;;;;3.10;2.90;;;16.20;99.90;;;;;;4962383;28;20185;-74
2022/08/03 05:26:46;;;;;;;3.87;2.90;;;16.30;99.90;;;;;;4962058;28;20738;-74
2022/08/03 05:29:11;;;;;;;3.83;3.20;;;16.40;99.90;;;;;;4994345;28;20194;-74
2022/08/03 05:31:37;;;;;;;3.40;2.87;;;16.50;99.90;;;;;;4994958;28;20187;-74
2022/08/03 05:34:02;;;;;;;3.03;2.80;;;16.60;99.90;;;;;;4981330;28;20650;-74
2022/08/03 05:36:28;;;;;;;3.60;3.30;;;16.60;99.90;;;;;;4965573;28;20264;-74
2022/08/03 05:38:54;;;;;;;3.40;3.10;;;16.60;99.90;;;;;;4998116;28;20211;-74
2022/08/03 05:41:19;;;;;;;4.67;3.37;;;16.70;99.90;;;;;;4981869;28;20180;-75
2022/08/03 05:43:45;;;;;;;3.73;3.10;;;16.90;99.90;;;;;;4997991;28;20179;-73
2022/08/03 05:46:11;;;;;;;3.50;3.20;;;17.00;99.90;;;;;;5015299;28;20245;-73
2022/08/03 05:48:37;;;;;;;3.90;3.60;;;17.00;99.90;;;;;;4998073;28;20183;-74
2022/08/03 05:51:05;;;;;;;4.20;3.90;;;17.00;99.90;;;;;;4998211;28;20187;-75
2022/08/03 05:53:34;;;;;;;3.67;3.37;;;17.10;99.90;;;;;;4982424;28;20615;-74
2022/08/03 05:56:00;;;;;;;7.03;3.80;;;17.20;99.90;;;;;;4981421;28;20313;-74
2022/08/03 05:58:26;;;;;;;4.27;3.60;;;17.20;99.90;;;;;;4981315;28;20643;-74
2022/08/03 06:00:51;;;;;;;3.67;3.37;;;17.20;99.90;;;;;;4981832;28;20179;-74
2022/08/03 06:03:17;;;;;;;3.50;3.27;;;17.30;99.90;;;;;;4981396;28;20183;-74
2022/08/03 06:05:42;;;;;;;5.13;3.80;;;17.40;99.90;;;;;;4981381;28;20580;-75
2022/08/03 06:08:08;;;;;;;3.87;3.57;;;17.50;99.90;;;;;;4965038;28;20190;-75
2022/08/03 06:10:34;;;;;;;4.03;3.63;;;17.60;99.90;;;;;;4997684;28;20179;-75
2022/08/03 06:12:59;;;;;;;3.43;3.13;;;17.70;99.90;;;;;;4981967;28;20186;-75
2022/08/03 06:15:25;;;;;;;3.73;3.43;;;17.80;99.90;;;;;;4981390;28;20222;-76
2022/08/03 06:17:51;;;;;;;3.93;3.60;;;17.80;99.90;;;;;;4997127;28;20681;-75
2022/08/03 06:20:20;;;;;;;3.77;3.47;;;17.90;99.90;;;;;;4981269;28;20179;-75
2022/08/03 06:22:47;;;;;;;4.17;3.67;;;18.00;99.90;;;;;;4997284;28;20233;-76
2022/08/03 06:25:13;;;;;;;4.23;3.50;;;18.10;99.90;;;;;;4981071;28;20199;-76
2022/08/03 06:27:39;;;;;;;4.70;3.30;;;18.30;99.90;;;;;;4997094;28;20269;-75
2022/08/03 06:30:09;;;;;;;3.60;3.30;;;18.40;99.90;;;;;;4981033;28;20179;-75
2022/08/03 06:32:35;;;;;;;3.50;3.20;;;18.50;99.90;;;;;;5014764;28;20178;-75
2022/08/03 06:35:01;;;;;;;3.60;3.30;;;18.60;99.90;;;;;;4980941;28;20179;-75
2022/08/03 06:37:27;;;;;;;3.87;3.10;;;18.70;99.90;;;;;;4996921;28;20630;-75
2022/08/03 06:39:53;;;;;;;3.53;3.23;;;18.80;99.90;;;;;;4996909;28;20179;-75
2022/08/03 06:42:19;;;;;;;4.03;3.13;;;18.90;99.90;;;;;;4996939;28;20187;-75
2022/08/03 06:44:44;;;;;;;3.50;3.20;;;19.00;99.90;;;;;;4980311;28;20178;-76
2022/08/03 06:47:10;;;;;;;3.80;3.40;;;19.10;99.90;;;;;;5014262;28;20199;-75
2022/08/03 06:49:36;;;;;;;3.57;3.27;;;19.20;99.90;;;;;;5014430;28;20700;-75
2022/08/03 06:52:02;;;;;;;3.47;3.17;;;19.20;99.90;;;;;;4980715;28;20183;-76
2022/08/03 06:54:27;;;;;;;5.27;3.23;;;19.40;99.90;;;;;;4980495;28;20183;-75
2022/08/03 06:56:53;;;;;;;3.20;2.87;;;19.50;99.90;;;;;;4980301;28;20211;-76
2022/08/03 06:59:19;;;;;;;3.43;3.07;;;19.70;99.90;;;;;;4980391;28;20211;-75
2022/08/03 07:01:44;;;;;;;3.53;3.23;;;19.80;99.90;;;;;;4980532;28;20233;-75
2022/08/03 07:04:10;;;;;;;5.32;3.03;;;19.90;99.90;;;;;;4980447;28;20177;-76
2022/08/03 07:06:37;;;;;;;3.17;2.88;;;20.10;99.90;;;;;;4996482;28;20278;-76
2022/08/03 07:09:02;;;;;;;3.40;3.08;;;20.20;99.90;;;;;;5013936;28;20699;-75
2022/08/03 07:11:28;;;;;;;3.10;2.80;;;20.40;99.90;;;;;;4996585;28;20183;-75
2022/08/03 07:13:55;;;;;;;3.40;3.10;;;20.50;99.90;;;;;;4980079;28;20326;-75
2022/08/03 07:16:21;;;;;;;4.05;2.65;;;20.60;99.90;;;;;;4996328;28;20249;-76
2022/08/03 07:18:46;;;;;;;3.22;2.80;;;20.80;99.90;;;;;;4980089;28;20294;-76
2022/08/03 07:21:12;;;;;;;3.47;2.80;;;21.10;99.90;;;;;;4996259;28;20182;-76
2022/08/03 07:23:38;;;;;;;2.20;2.00;;;21.20;99.90;;;;;;4979802;28;20183;-76
2022/08/03 07:26:04;;;;;;;2.70;2.50;;;21.40;99.90;;;;;;4996220;28;20203;-76
2022/08/03 07:28:29;;;;;;;3.28;2.50;;;21.50;99.90;;;;;;4995878;28;20278;-76
2022/08/03 07:30:55;;;;;;;2.55;2.35;;;21.60;99.90;;;;;;4979913;28;20553;-76
2022/08/03 07:33:21;;;;;;;2.55;2.35;;;21.70;99.90;;;;;;4996046;28;20225;-76
2022/08/03 07:35:46;;;;;;;2.35;2.15;;;21.80;99.90;;;;;;4979723;28;20199;-76
2022/08/03 07:38:12;;;;;;;2.75;2.50;;;22.00;99.90;;;;;;4979632;28;20282;-76
2022/08/03 07:40:38;;;;;;;2.47;2.28;;;22.10;99.90;;;;;;4979902;28;20173;-75
2022/08/03 07:43:04;;;;;;;2.60;2.40;;;22.30;99.90;;;;;;4995948;28;20226;-76
2022/08/03 07:45:32;;;;;;;2.83;2.30;;;22.50;99.90;;;;;;5012230;28;20195;-76
2022/08/03 07:47:58;;;;;;;2.50;2.30;;;22.80;99.90;;;;;;4995764;28;20202;-76
2022/08/03 07:50:24;;;;;;;2.60;2.40;;;23.10;99.90;;;;;;4996028;28;20175;-75
2022/08/03 07:52:51;;;;;;;2.63;2.40;;;23.20;99.90;;;;;;4995562;28;20186;-76
2022/08/03 07:55:25;;;;;;;3.55;2.45;;;23.30;99.90;;;;;;4978810;28;20199;-76
2022/08/03 07:58:06;;;;;;;4.53;2.30;;;23.40;99.90;;;;;;4995312;28;20341;-75
2022/08/03 08:00:32;;;;;;;2.30;2.10;;;23.50;99.90;;;;;;4979307;28;20182;-76
2022/08/03 08:02:58;;;;;;;4.55;2.28;;;23.70;99.90;;;;;;4995424;28;20587;-76
2022/08/03 08:05:24;;;;;;;2.25;2.08;;;23.90;99.90;;;;;;4979208;28;20195;-76
2022/08/03 08:07:50;;;;;;;2.17;2.00;;;24.00;99.90;;;;;;5012650;28;20178;-76
2022/08/03 08:10:15;;;;;;;2.30;2.10;;;24.20;99.90;;;;;;4995421;28;20175;-76
2022/08/03 08:12:41;;;;;;;2.47;2.28;;;24.40;99.90;;;;;;4963074;28;20183;-77
2022/08/03 08:15:08;;;;;;;3.30;2.30;;;24.70;99.90;;;;;;4995265;28;20229;-76
2022/08/03 08:17:47;;;;;;;2.80;2.05;;;24.80;99.90;;;;;;4995217;28;20183;-76
2022/08/03 08:20:17;;;;;;;2.58;2.00;;;25.00;99.90;;;;;;4979174;28;20167;-76
2022/08/03 08:22:43;;;;;;;2.13;1.92;;;25.10;99.90;;;;;;4995380;28;20215;-76
2022/08/03 08:25:09;;;;;;;2.10;1.90;;;25.20;99.90;;;;;;4962914;28;20195;-76
2022/08/03 08:27:41;;;;;;;3.05;2.15;;;25.40;99.60;;;;;;4995116;28;20230;-76
2022/08/03 08:30:07;;;;;;;2.35;1.95;;;25.50;97.30;;;;;;5012501;28;20221;-76
2022/08/03 08:32:33;;;;;;;2.95;1.80;;;25.70;97.00;;;;;;4979496;28;20213;-74
2022/08/03 08:34:59;;;;;;;106.10;18.45;;;25.90;94.30;;;;;;4995265;28;20257;-74
2022/08/03 08:37:25;;;;;;;83.53;6.40;;;26.10;87.70;;;;;;4978648;28;20178;-74
2022/08/03 08:39:50;;;;;;;1.88;1.65;;;26.30;86.60;;;;;;4979072;28;20214;-75
2022/08/03 08:42:16;;;;;;;3.60;2.20;;;26.40;89.40;;;;;;4962778;28;20649;-75
2022/08/03 08:44:41;;;;;;;2.47;1.90;;;26.60;89.80;;;;;;4995274;28;20638;-75
2022/08/03 08:47:08;;;;;;;2.58;1.90;;;26.70;91.30;;;;;;4962388;28;20195;-74
2022/08/03 08:49:36;;;;;;;2.00;1.80;;;26.90;88.20;;;;;;4978641;28;20565;-74
2022/08/03 08:52:04;;;;;;;2.65;2.05;;;27.00;87.90;;;;;;5012486;28;20258;-74
2022/08/03 08:54:32;;;;;;;2.20;1.90;;;27.10;87.00;;;;;;4995214;28;20183;-74
2022/08/03 08:57:00;;;;;;;1.40;1.20;;;27.20;87.80;;;;;;4978428;28;20199;-75
2022/08/03 08:59:26;;;;;;;1.45;1.35;;;27.30;85.20;;;;;;4994636;28;20203;-75
2022/08/03 09:01:57;;;;;;;1.38;1.17;;;27.40;86.10;;;;;;4994997;28;20183;-74
2022/08/03 09:04:22;;;;;;;1.65;1.55;;;27.50;85.30;;;;;;4994763;28;20174;-74
2022/08/03 09:06:48;;;;;;;1.40;1.30;;;27.60;84.70;;;;;;4963483;28;20191;-75
2022/08/03 09:09:14;;;;;;;1.90;1.80;;;27.80;85.50;;;;;;4982525;28;20214;-75
2022/08/03 09:11:42;;;;;;;1.83;1.73;;;28.00;84.40;;;;;;4966463;28;20258;-75
2022/08/03 09:14:10;;;;;;;2.10;1.75;;;28.20;88.50;;;;;;4998545;28;20194;-74
2022/08/03 09:16:36;;;;;;;1.80;1.70;;;28.30;81.70;;;;;;4998362;28;20209;-75
2022/08/03 09:19:12;;;;;;;2.30;1.70;;;28.40;80.00;;;;;;4966281;28;20182;-74
2022/08/03 09:21:38;;;;;;;1.50;1.40;;;28.60;79.30;;;;;;4982278;28;20174;-74
2022/08/03 09:24:05;;;;;;;2.60;1.40;;;28.60;78.20;;;;;;4998516;28;20194;-74
2022/08/03 09:26:33;;;;;;;1.77;1.65;;;28.60;75.70;;;;;;4965991;28;20253;-76
2022/08/03 09:29:08;;;;;;;1.67;1.58;;;28.70;75.10;;;;;;4982180;28;20206;-74
2022/08/03 09:31:38;;;;;;;1.40;1.30;;;28.70;77.50;;;;;;4998551;28;20330;-75
2022/08/03 09:34:09;;;;;;;1.50;1.40;;;28.80;75.90;;;;;;5014714;28;20208;-75
2022/08/03 09:36:36;;;;;;;1.77;1.50;;;28.80;72.30;;;;;;5015541;28;20187;-74
2022/08/03 09:39:11;;;;;;;1.65;1.55;;;28.70;70.60;;;;;;4981988;28;20175;-75
2022/08/03 09:41:37;;;;;;;1.60;1.50;;;28.80;71.10;;;;;;4982344;28;20183;-75
2022/08/03 09:44:03;;;;;;;1.50;1.40;;;28.90;71.50;;;;;;4982407;28;20182;-74
2022/08/03 09:46:30;;;;;;;1.60;1.50;;;29.00;72.80;;;;;;4998099;28;20452;-75
2022/08/03 09:49:12;;;;;;;1.40;1.30;;;29.30;71.40;;;;;;4998147;28;20214;-75
2022/08/03 09:51:38;;;;;;;1.33;1.23;;;29.40;70.90;;;;;;4981431;28;20657;-75
2022/08/03 09:54:04;;;;;;;1.50;1.40;;;29.50;69.90;;;;;;4981736;28;20234;-75
2022/08/03 09:56:46;;;;;;;5.05;2.58;;;29.60;67.90;;;;;;4981482;28;20725;-75
2022/08/03 09:59:21;;;;;;;1.98;1.48;;;29.60;66.80;;;;;;4981528;28;20182;-75
2022/08/03 10:01:47;;;;;;;1.40;1.30;;;29.70;66.20;;;;;;5015232;28;20171;-75
2022/08/03 10:04:15;;;;;;;1.85;1.75;;;29.70;65.30;;;;;;4965320;28;20175;-75
2022/08/03 10:06:44;;;;;;;2.00;1.90;;;29.80;65.20;;;;;;5015211;28;20193;-77
2022/08/03 10:09:14;;;;;;;1.88;1.77;;;29.80;64.10;;;;;;4997647;28;20206;-77
2022/08/03 10:11:41;;;;;;;2.08;1.80;;;29.80;63.70;;;;;;4998149;28;20245;-77
2022/08/03 10:14:09;;;;;;;2.15;1.80;;;29.80;62.40;;;;;;5013746;28;20195;-78
2022/08/03 10:16:37;;;;;;;1.98;1.60;;;29.90;63.60;;;;;;4964763;28;20700;-75
2022/08/03 10:19:04;;;;;;;1.95;1.70;;;30.20;65.50;;;;;;4964635;28;20179;-75
2022/08/03 10:21:33;;;;;;;2.13;1.92;;;30.50;66.60;;;;;;4965197;28;20672;-75
2022/08/03 10:24:09;;;;;;;1.50;1.40;;;30.60;61.40;;;;;;4997138;28;20191;-75
2022/08/03 10:26:38;;;;;;;2.65;1.33;;;30.60;60.60;;;;;;4981839;28;20202;-76
2022/08/03 10:29:10;;;;;;;1.55;1.45;;;30.80;58.60;;;;;;4964663;28;20214;-75
2022/08/03 10:31:43;;;;;;;1.60;1.50;;;30.70;57.00;;;;;;4997301;28;20649;-74
2022/08/03 10:34:16;;;;;;;1.30;1.20;;;30.60;54.70;;;;;;4981220;28;20175;-75
2022/08/03 10:36:44;;;;;;;1.38;1.20;;;30.80;56.40;;;;;;4996913;28;20245;-75
2022/08/03 10:39:13;;;;;;;1.20;1.10;;;31.00;55.30;;;;;;4981117;28;20179;-75
2022/08/03 10:41:45;;;;;;;1.40;1.30;;;31.00;53.90;;;;;;4996958;28;20210;-75
2022/08/03 10:44:17;;;;;;;1.95;1.30;;;30.90;54.20;;;;;;4997787;28;20522;-75
2022/08/03 10:46:44;;;;;;;1.95;1.40;;;31.00;53.20;;;;;;4996728;28;20199;-75
2022/08/03 10:49:14;;;;;;;523.25;38.13;;;31.10;53.90;;;;;;4983627;28;20214;-77
2022/08/03 10:51:44;;;;;;;1.80;1.70;;;31.40;55.80;;;;;;4980449;28;20175;-76
2022/08/03 10:57:33;;;;;;;3.45;1.73;;;31.50;54.20;;;;;;4996760;28;20175;-76
2022/08/03 10:57:51;;;;;;;2.47;2.15;;;31.40;50.70;;;;;;4999356;28;20266;-76
2022/08/03 11:00:23;;;;;;;21.77;2.92;;;31.40;51.70;;;;;;4978343;28;20555;-77
2022/08/03 11:03:05;;;;;;;1.80;1.70;;;31.50;52.10;;;;;;4996971;28;20245;-77
2022/08/03 11:05:43;;;;;;;1.98;1.77;;;31.80;49.50;;;;;;4996582;28;20203;-76
2022/08/03 11:08:30;;;;;;;1.90;1.80;;;32.10;55.10;;;;;;4996534;28;20202;-76
2022/08/03 11:11:23;;;;;;;1.80;1.70;;;32.40;50.90;;;;;;4996507;28;20239;-77
2022/08/03 11:14:07;;;;;;;1.83;1.63;;;32.50;50.00;;;;;;4991843;28;20199;-77
2022/08/03 11:16:38;;;;;;;2.83;1.90;;;32.30;48.60;;;;;;4980284;28;20191;-77
2022/08/03 11:19:06;;;;;;;2.10;1.90;;;32.40;50.00;;;;;;4980304;28;20179;-77
2022/08/03 11:21:50;;;;;;;3.60;1.80;;;32.50;47.70;;;;;;4980234;28;20560;-76
2022/08/03 11:24:46;;;;;;;2.00;1.70;;;32.40;46.00;;;;;;4996405;28;20171;-77
2022/08/03 11:27:17;;;;;;;2.00;1.83;;;32.60;47.40;;;;;;4996093;28;20276;-76
2022/08/03 11:30:27;;;;;;;2.40;1.70;;;32.50;46.40;;;;;;5012512;28;20692;-77
2022/08/03 11:32:56;;;;;;;3.25;1.80;;;32.90;47.50;;;;;;5013566;28;20320;-77
2022/08/03 11:35:25;;;;;;;2.38;1.70;;;32.90;47.60;;;;;;4979755;28;20199;-76
2022/08/03 11:37:56;;;;;;;3.15;1.90;;;33.30;50.90;;;;;;4995815;28;20171;-77
2022/08/03 11:40:48;;;;;;;2.45;1.70;;;33.20;45.80;;;;;;4996170;28;20206;-76
2022/08/03 11:43:29;;;;;;;3.03;1.90;;;32.90;45.90;;;;;;4965261;28;20183;-76
2022/08/03 11:46:02;;;;;;;3.03;1.80;;;32.80;45.40;;;;;;5013289;28;20195;-76
2022/08/03 11:48:38;;;;;;;2.50;1.80;;;32.70;45.50;;;;;;4995390;28;20227;-76
2022/08/03 11:51:17;;;;;;;1.77;1.67;;;32.40;44.30;;;;;;4995876;28;20175;-76
2022/08/03 11:53:43;;;;;;;2.65;1.83;;;32.60;45.20;;;;;;5013339;28;20174;-76
2022/08/03 11:56:08;;;;;;;1.88;1.60;;;32.60;43.60;;;;;;4979314;28;20190;-76
2022/08/03 11:58:34;;;;;;;2.05;1.80;;;32.80;43.70;;;;;;4979441;28;20183;-77
2022/08/03 12:01:05;;;;;;;1.77;1.65;;;33.20;46.70;;;;;;4979363;28;20234;-76
2022/08/03 12:03:35;;;;;;;1.60;1.50;;;33.60;47.50;;;;;;4995384;28;20175;-76
2022/08/03 12:06:01;;;;;;;2.30;1.60;;;34.00;44.40;;;;;;4995461;28;20199;-76
2022/08/03 12:08:26;;;;;;;1.67;1.58;;;34.20;44.80;;;;;;4979175;28;20207;-77
2022/08/03 12:10:53;;;;;;;5.10;1.75;;;34.40;41.90;;;;;;4995497;28;20725;-76
2022/08/03 12:13:20;;;;;;;2.35;1.88;;;34.30;42.60;;;;;;5013659;23;20230;-74
2022/08/03 12:15:54;;;;;;;2.05;1.85;;;34.10;41.70;;;;;;4959974;28;20266;-75
2022/08/03 12:18:22;;;;;;;2.55;1.88;;;33.70;40.90;;;;;;4944161;28;20179;-75
2022/08/03 12:20:49;;;;;;;2.22;1.80;;;33.40;41.90;;;;;;4975884;28;20233;-75
2022/08/03 12:23:16;;;;;;;2.20;1.83;;;33.40;44.30;;;;;;4959905;28;20207;-75
2022/08/03 12:25:44;;;;;;;2.00;1.63;;;33.60;43.10;;;;;;4975735;28;20661;-75
2022/08/03 12:28:15;;;;;;;1.83;1.73;;;34.00;43.70;;;;;;4959268;28;20292;-75
2022/08/03 12:30:42;;;;;;;3.38;1.90;;;34.10;41.60;;;;;;4975623;28;20168;-75
2022/08/03 12:33:55;;;;;;;2.83;1.85;;;34.20;41.20;;;;;;4959598;28;20199;-75
2022/08/03 12:36:21;;;;;;;1.90;1.60;;;34.20;41.30;;;;;;4968506;28;20270;-75
2022/08/03 12:39:02;;;;;;;1.70;1.58;;;33.70;41.20;;;;;;4959686;28;20230;-75
2022/08/03 12:41:32;;;;;;;2.40;1.90;;;33.30;42.70;;;;;;4959052;28;20202;-75
2022/08/03 12:43:58;;;;;;;2.67;1.70;;;33.00;41.20;;;;;;4992820;28;20191;-75
2022/08/03 12:46:33;;;;;;;4.32;1.80;;;33.30;42.10;;;;;;4959184;28;20323;-75
2022/08/03 12:49:09;;;;;;;2.05;1.80;;;33.80;40.90;;;;;;4959256;28;20560;-75
2022/08/03 12:51:56;;;;;;;2.38;1.80;;;34.30;40.50;;;;;;4975769;28;20175;-75
2022/08/03 12:54:32;;;;;;;2.00;1.80;;;34.60;42.20;;;;;;4975138;28;20689;-75
2022/08/03 12:56:58;;;;;;;2.75;1.90;;;34.70;39.90;;;;;;4975158;28;20172;-75
2022/08/03 12:59:29;;;;;;;4.53;2.10;;;34.80;40.90;;;;;;4975591;28;20178;-75
2022/08/03 13:01:54;;;;;;;1.95;1.70;;;34.80;39.30;;;;;;4959827;28;20192;-75
2022/08/03 13:04:28;;;;;;;1.70;1.60;;;34.60;38.50;;;;;;4992734;28;20579;-75